sensor_id;sensor_type;location;lat;lon;timestamp;temperature;humidity
45207;DHT22;30950;53.086;21.576;2022-12-18T18:13:01;-4.50;99.90
45207;DHT22;30950;53.086;21.576;2022-12-18T18:15:56;-4.50;99.90
45207;DHT22;30950;53.086;21.576;2022-12-18T18:18:23;-4.50;99.90
45207;DHT22;30950;53.086;21.576;2022-12-18T18:20:51;-4.40;99.90
45207;DHT22;30950;53.086;21.576;2022-12-18T18:23:20;-4.40;99.90
45207;DHT22;30950;53.086;21.576;2022-12-18T18:25:48;-4.40;99.90
45207;DHT22;30950;53.086;21.576;2022-12-18T18:28:19;-4.30;99.90
45207;DHT22;30950;53.086;21.576;2022-12-18T18:30:47;-4.20;99.90
45207;DHT22;30950;53.086;21.576;2022-12-18T18:33:17;-4.20;99.90
45207;DHT22;30950;53.086;21.576;2022-12-18T18:35:44;-4.20;99.90
45207;DHT22;30950;53.086;21.576;2022-12-18T18:38:20;-4.10;99.90
45207;DHT22;30950;53.086;21.576;2022-12-18T18:40:48;-4.10;99.90
45207;DHT22;30950;53.086;21.576;2022-12-18T18:43:15;-4.10;99.90
45207;DHT22;30950;53.086;21.576;2022-12-18T18:45:43;-4.10;99.90
45207;DHT22;30950;53.086;21.576;2022-12-18T18:48:13;-4.00;99.90
45207;DHT22;30950;53.086;21.576;2022-12-18T18:50:40;-4.00;99.90
45207;DHT22;30950;53.086;21.576;2022-12-18T18:53:10;-4.00;99.90
45207;DHT22;30950;53.086;21.576;2022-12-18T18:55:37;-3.90;99.90
45207;DHT22;30950;53.086;21.576;2022-12-18T18:58:05;-3.80;99.90
45207;DHT22;30950;53.086;21.576;2022-12-18T19:00:33;-3.80;99.90
45207;DHT22;30950;53.086;21.576;2022-12-18T19:03:00;-3.80;99.90
45207;DHT22;30950;53.086;21.576;2022-12-18T19:05:38;-3.80;99.90
45207;DHT22;30950;53.086;21.576;2022-12-18T19:08:10;-3.90;99.90
45207;DHT22;30950;53.086;21.576;2022-12-18T19:10:41;-3.90;99.90
45207;DHT22;30950;53.086;21.576;2022-12-18T19:13:11;-3.80;99.90
45207;DHT22;30950;53.086;21.576;2022-12-18T19:15:48;-3.90;99.90
45207;DHT22;30950;53.086;21.576;2022-12-18T19:18:16;-3.80;99.90
45207;DHT22;30950;53.086;21.576;2022-12-18T19:20:43;-3.80;99.90
45207;DHT22;30950;53.086;21.576;2022-12-18T19:23:11;-3.80;99.90
45207;DHT22;30950;53.086;21.576;2022-12-18T19:25:38;-3.80;99.90
45207;DHT22;30950;53.086;21.576;2022-12-18T19:28:08;-3.80;99.90
45207;DHT22;30950;53.086;21.576;2022-12-18T19:30:50;-3.80;99.90
45207;DHT22;30950;53.086;21.576;2022-12-18T19:33:29;-3.70;99.90
45207;DHT22;30950;53.086;21.576;2022-12-18T19:36:24;-3.80;99.90
45207;DHT22;30950;53.086;21.576;2022-12-18T19:38:54;-3.80;99.90
45207;DHT22;30950;53.086;21.576;2022-12-18T19:41:22;-3.80;99.90
45207;DHT22;30950;53.086;21.576;2022-12-18T19:43:51;-3.80;99.90
45207;DHT22;30950;53.086;21.576;2022-12-18T19:46:21;-3.80;99.90
45207;DHT22;30950;53.086;21.576;2022-12-18T19:48:49;-3.80;99.90
45207;DHT22;30950;53.086;21.576;2022-12-18T19:51:19;-3.70;99.90
45207;DHT22;30950;53.086;21.576;2022-12-18T19:53:47;-3.70;99.90
45207;DHT22;30950;53.086;21.576;2022-12-18T19:56:23;-3.70;99.90
45207;DHT22;30950;53.086;21.576;2022-12-18T19:58:53;-3.70;99.90
45207;DHT22;30950;53.086;21.576;2022-12-18T20:01:22;-3.70;99.90
45207;DHT22;30950;53.086;21.576;2022-12-18T20:03:50;-3.70;99.90
45207;DHT22;30950;53.086;21.576;2022-12-18T20:06:33;-3.80;99.90
45207;DHT22;30950;53.086;21.576;2022-12-18T20:09:05;-3.80;99.90
45207;DHT22;30950;53.086;21.576;2022-12-18T20:11:34;-3.80;99.90
45207;DHT22;30950;53.086;21.576;2022-12-18T20:14:09;-3.80;99.90
45207;DHT22;30950;53.086;21.576;2022-12-18T20:16:37;-3.70;99.90
45207;DHT22;30950;53.086;21.576;2022-12-18T20:19:05;-3.70;99.90
45207;DHT22;30950;53.086;21.576;2022-12-18T20:21:33;-3.70;99.90
45207;DHT22;30950;53.086;21.576;2022-12-18T20:24:00;-3.70;99.90
45207;DHT22;30950;53.086;21.576;2022-12-18T20:26:28;-3.70;99.90
45207;DHT22;30950;53.086;21.576;2022-12-18T20:28:56;-3.70;99.90
45207;DHT22;30950;53.086;21.576;2022-12-18T20:31:23;-3.70;99.90
45207;DHT22;30950;53.086;21.576;2022-12-18T20:33:51;-3.70;99.90
45207;DHT22;30950;53.086;21.576;2022-12-18T20:36:22;-3.80;99.90
45207;DHT22;30950;53.086;21.576;2022-12-18T20:38:52;-3.80;99.90
45207;DHT22;30950;53.086;21.576;2022-12-18T20:41:25;-3.80;99.90
45207;DHT22;30950;53.086;21.576;2022-12-18T20:44:11;-3.90;99.90
45207;DHT22;30950;53.086;21.576;2022-12-18T20:46:53;-3.90;99.90
45207;DHT22;30950;53.086;21.576;2022-12-18T20:49:20;-3.90;99.90
45207;DHT22;30950;53.086;21.576;2022-12-18T20:51:49;-4.00;99.90
45207;DHT22;30950;53.086;21.576;2022-12-18T20:54:17;-4.00;99.90
45207;DHT22;30950;53.086;21.576;2022-12-18T20:56:45;-4.00;99.90
45207;DHT22;30950;53.086;21.576;2022-12-18T20:59:12;-4.00;99.90
45207;DHT22;30950;53.086;21.576;2022-12-18T21:01:39;-4.10;99.90
45207;DHT22;30950;53.086;21.576;2022-12-18T21:04:16;-4.00;99.90
45207;DHT22;30950;53.086;21.576;2022-12-18T21:06:48;-4.00;99.90
45207;DHT22;30950;53.086;21.576;2022-12-18T21:09:23;-4.20;99.90
45207;DHT22;30950;53.086;21.576;2022-12-18T21:11:51;-4.20;99.90
45207;DHT22;30950;53.086;21.576;2022-12-18T21:14:41;-4.30;99.90
45207;DHT22;30950;53.086;21.576;2022-12-18T21:17:09;-4.30;99.90
45207;DHT22;30950;53.086;21.576;2022-12-18T21:19:37;-4.30;99.90
45207;DHT22;30950;53.086;21.576;2022-12-18T21:22:05;-4.30;99.90
45207;DHT22;30950;53.086;21.576;2022-12-18T21:24:32;-4.30;99.90
45207;DHT22;30950;53.086;21.576;2022-12-18T21:27:00;-4.30;99.90
45207;DHT22;30950;53.086;21.576;2022-12-18T21:29:28;-4.30;99.90
45207;DHT22;30950;53.086;21.576;2022-12-18T21:31:56;-4.40;99.90
45207;DHT22;30950;53.086;21.576;2022-12-18T21:34:25;-4.40;99.90
45207;DHT22;30950;53.086;21.576;2022-12-18T21:36:54;-4.40;99.90
45207;DHT22;30950;53.086;21.576;2022-12-18T21:39:24;-4.40;99.90
45207;DHT22;30950;53.086;21.576;2022-12-18T21:41:52;-4.40;99.90
45207;DHT22;30950;53.086;21.576;2022-12-18T21:44:38;-4.40;99.90
45207;DHT22;30950;53.086;21.576;2022-12-18T21:47:09;-4.30;99.90
45207;DHT22;30950;53.086;21.576;2022-12-18T21:49:52;-4.30;99.90
45207;DHT22;30950;53.086;21.576;2022-12-18T21:52:20;-4.30;99.90
45207;DHT22;30950;53.086;21.576;2022-12-18T21:54:58;-4.20;99.90
45207;DHT22;30950;53.086;21.576;2022-12-18T21:57:36;-4.20;99.90
45207;DHT22;30950;53.086;21.576;2022-12-18T22:00:05;-4.20;99.90
45207;DHT22;30950;53.086;21.576;2022-12-18T22:02:38;-4.30;99.90
45207;DHT22;30950;53.086;21.576;2022-12-18T22:05:06;-4.20;99.90
45207;DHT22;30950;53.086;21.576;2022-12-18T22:07:34;-4.20;99.90
45207;DHT22;30950;53.086;21.576;2022-12-18T22:10:01;-4.20;99.90
45207;DHT22;30950;53.086;21.576;2022-12-18T22:12:28;-4.20;99.90
45207;DHT22;30950;53.086;21.576;2022-12-18T22:15:12;-4.10;99.90
45207;DHT22;30950;53.086;21.576;2022-12-18T22:17:49;-4.20;99.90
45207;DHT22;30950;53.086;21.576;2022-12-18T22:20:17;-4.10;99.90
45207;DHT22;30950;53.086;21.576;2022-12-18T22:22:47;-4.10;99.90
45207;DHT22;30950;53.086;21.576;2022-12-18T22:25:14;-4.10;99.90
45207;DHT22;30950;53.086;21.576;2022-12-18T22:27:42;-4.10;99.90
45207;DHT22;30950;53.086;21.576;2022-12-18T22:30:30;-4.10;99.90
45207;DHT22;30950;53.086;21.576;2022-12-18T22:32:57;-4.10;99.90
45207;DHT22;30950;53.086;21.576;2022-12-18T22:35:25;-4.20;99.90
45207;DHT22;30950;53.086;21.576;2022-12-18T22:37:52;-4.20;99.90
45207;DHT22;30950;53.086;21.576;2022-12-18T22:40:22;-4.20;99.90
45207;DHT22;30950;53.086;21.576;2022-12-18T22:42:53;-4.30;99.90
45207;DHT22;30950;53.086;21.576;2022-12-18T22:45:20;-4.20;99.90
45207;DHT22;30950;53.086;21.576;2022-12-18T22:47:48;-4.30;99.90
45207;DHT22;30950;53.086;21.576;2022-12-18T22:50:16;-4.30;99.90
45207;DHT22;30950;53.086;21.576;2022-12-18T22:52:45;-4.30;99.90
45207;DHT22;30950;53.086;21.576;2022-12-18T22:55:13;-4.30;99.90
45207;DHT22;30950;53.086;21.576;2022-12-18T22:57:41;-4.30;99.90
45207;DHT22;30950;53.086;21.576;2022-12-18T23:00:15;-4.30;99.90
45207;DHT22;30950;53.086;21.576;2022-12-18T23:02:51;-4.30;99.90
45207;DHT22;30950;53.086;21.576;2022-12-18T23:05:27;-4.30;99.90
45207;DHT22;30950;53.086;21.576;2022-12-18T23:07:54;-4.30;99.90
45207;DHT22;30950;53.086;21.576;2022-12-18T23:10:21;-4.30;99.90
45207;DHT22;30950;53.086;21.576;2022-12-18T23:12:49;-4.40;99.90
45207;DHT22;30950;53.086;21.576;2022-12-18T23:15:16;-4.40;99.90
45207;DHT22;30950;53.086;21.576;2022-12-18T23:17:48;-4.40;99.90
45207;DHT22;30950;53.086;21.576;2022-12-18T23:20:16;-4.50;99.90
45207;DHT22;30950;53.086;21.576;2022-12-18T23:22:43;-4.60;99.90
45207;DHT22;30950;53.086;21.576;2022-12-18T23:25:11;-4.50;99.90
45207;DHT22;30950;53.086;21.576;2022-12-18T23:27:38;-4.50;99.90
45207;DHT22;30950;53.086;21.576;2022-12-18T23:30:06;-4.60;99.90
45207;DHT22;30950;53.086;21.576;2022-12-18T23:32:35;-4.70;99.90
45207;DHT22;30950;53.086;21.576;2022-12-18T23:35:03;-4.70;99.90
45207;DHT22;30950;53.086;21.576;2022-12-18T23:37:32;-4.80;99.90
45207;DHT22;30950;53.086;21.576;2022-12-18T23:40:20;-4.80;99.90
45207;DHT22;30950;53.086;21.576;2022-12-18T23:42:47;-4.80;99.90
45207;DHT22;30950;53.086;21.576;2022-12-18T23:45:14;-4.80;99.90
45207;DHT22;30950;53.086;21.576;2022-12-18T23:47:44;-4.80;99.90
45207;DHT22;30950;53.086;21.576;2022-12-18T23:50:17;-4.80;99.90
45207;DHT22;30950;53.086;21.576;2022-12-18T23:52:44;-4.80;99.90
45207;DHT22;30950;53.086;21.576;2022-12-18T23:55:11;-4.80;99.90
45207;DHT22;30950;53.086;21.576;2022-12-18T23:57:39;-4.80;99.90
